createdAt,value
2018-12-26T00:00:38.908Z,6.13
2018-12-26T00:03:08.306Z,6.83
2018-12-26T00:05:37.564Z,6.70
2018-12-26T00:08:06.945Z,7.40
2018-12-26T00:10:36.241Z,7.83
2018-12-26T00:13:05.528Z,8.00
2018-12-26T00:15:34.735Z,7.67
2018-12-26T00:18:03.939Z,8.80
2018-12-26T00:20:33.304Z,8.27
2018-12-26T00:23:02.554Z,8.80
2018-12-26T00:25:31.789Z,9.60
2018-12-26T00:28:01.254Z,9.63
2018-12-26T00:30:30.434Z,9.80
2018-12-26T00:32:59.771Z,11.17
2018-12-26T00:35:29.049Z,10.87
2018-12-26T00:37:58.227Z,12.30
2018-12-26T00:40:27.507Z,11.80
2018-12-26T00:42:56.861Z,12.33
2018-12-26T00:45:26.201Z,13.90
2018-12-26T00:47:55.529Z,13.20
2018-12-26T00:50:24.842Z,14.07
2018-12-26T00:52:54.081Z,13.57
2018-12-26T00:55:23.327Z,13.20
2018-12-26T00:57:52.612Z,13.73
2018-12-26T01:00:21.859Z,14.87
2018-12-26T01:02:51.197Z,15.00
2018-12-26T01:05:20.463Z,15.47
2018-12-26T01:07:49.713Z,14.70
2018-12-26T01:10:19.002Z,16.87
2018-12-26T01:12:48.310Z,16.27
2018-12-26T01:15:17.645Z,16.33
2018-12-26T01:17:46.963Z,16.80
2018-12-26T01:20:16.250Z,18.20
2018-12-26T01:22:45.732Z,17.13
2018-12-26T01:25:15.918Z,18.57
2018-12-26T01:27:45.177Z,18.73
2018-12-26T01:30:14.506Z,17.93
2018-12-26T01:32:43.830Z,19.37
2018-12-26T01:35:13.066Z,18.10
2018-12-26T01:37:42.367Z,18.93
2018-12-26T01:40:15.108Z,18.73
2018-12-26T01:42:44.379Z,19.00
2018-12-26T01:45:14.470Z,19.82
2018-12-26T01:47:43.723Z,18.57
2018-12-26T01:50:13.075Z,18.80
2018-12-26T01:52:42.493Z,19.87
2018-12-26T01:55:11.763Z,18.60
2018-12-26T01:57:41.042Z,17.77
2018-12-26T02:00:10.559Z,20.43
2018-12-26T02:02:39.763Z,19.03
2018-12-26T02:05:09.138Z,19.60
2018-12-26T02:07:38.488Z,19.23
2018-12-26T02:10:07.946Z,20.60
2018-12-26T02:12:37.309Z,18.67
2018-12-26T02:15:06.745Z,20.37
2018-12-26T02:17:35.955Z,20.43
2018-12-26T02:20:05.714Z,19.77
2018-12-26T02:22:35.069Z,19.80
2018-12-26T02:25:04.318Z,22.67
2018-12-26T02:27:33.615Z,22.60
2018-12-26T02:30:02.943Z,20.50
2018-12-26T02:32:32.196Z,21.20
2018-12-26T02:35:01.527Z,22.73
2018-12-26T02:37:30.770Z,21.73
2018-12-26T02:40:00.159Z,21.87
2018-12-26T02:42:29.367Z,21.37
2018-12-26T02:44:58.639Z,20.80
2018-12-26T02:47:28.002Z,20.73
2018-12-26T02:49:57.357Z,19.80
2018-12-26T02:52:26.605Z,21.23
2018-12-26T02:54:55.858Z,20.43
2018-12-26T02:57:25.131Z,21.43
2018-12-26T02:59:54.445Z,21.07
2018-12-26T03:02:23.686Z,20.13
2018-12-26T03:04:52.986Z,21.00
2018-12-26T03:07:22.278Z,20.30
2018-12-26T03:09:51.559Z,20.20
2018-12-26T03:12:20.884Z,19.43
2018-12-26T03:14:50.139Z,19.73
2018-12-26T03:17:19.489Z,18.23
2018-12-26T03:19:48.750Z,19.27
2018-12-26T03:22:17.992Z,17.57
2018-12-26T03:24:47.349Z,19.10
2018-12-26T03:27:16.606Z,16.97
2018-12-26T03:29:45.815Z,17.97
2018-12-26T03:32:15.068Z,16.03
2018-12-26T03:34:44.302Z,19.07
2018-12-26T03:37:14.075Z,18.13
2018-12-26T03:39:43.337Z,19.00
2018-12-26T03:42:12.636Z,21.00
2018-12-26T03:44:41.913Z,19.50
2018-12-26T03:47:11.323Z,20.43
2018-12-26T03:49:40.596Z,18.60
2018-12-26T03:52:10.169Z,18.87
2018-12-26T03:54:39.472Z,18.80
2018-12-26T03:57:08.924Z,17.97
2018-12-26T03:59:38.189Z,17.33
2018-12-26T04:02:07.385Z,19.57
2018-12-26T04:04:36.673Z,19.03
2018-12-26T04:07:05.921Z,17.57
2018-12-26T04:09:35.307Z,17.13
2018-12-26T04:12:04.680Z,16.87
2018-12-26T04:14:34.130Z,16.17
2018-12-26T04:17:03.730Z,18.07
2018-12-26T04:19:33.010Z,17.80
2018-12-26T04:22:02.299Z,17.20
2018-12-26T04:24:31.753Z,18.10
2018-12-26T04:27:01.001Z,18.47
2018-12-26T04:29:30.301Z,17.90
2018-12-26T04:31:59.651Z,17.07
2018-12-26T04:34:28.937Z,17.10
2018-12-26T04:36:58.283Z,17.63
2018-12-26T04:39:27.584Z,16.80
2018-12-26T04:41:56.783Z,17.50
2018-12-26T04:44:26.033Z,17.80
2018-12-26T04:46:55.318Z,17.93
2018-12-26T04:49:24.585Z,18.77
2018-12-26T04:51:53.900Z,17.63
2018-12-26T04:54:23.149Z,17.23
2018-12-26T04:56:52.450Z,17.90
2018-12-26T04:59:21.733Z,17.50
2018-12-26T05:01:51.036Z,18.97
2018-12-26T05:04:20.421Z,19.10
2018-12-26T05:06:49.737Z,18.00
2018-12-26T05:09:18.965Z,17.87
2018-12-26T05:11:48.218Z,19.60
2018-12-26T05:14:17.453Z,18.87
2018-12-26T05:16:46.727Z,18.93
2018-12-26T05:19:15.989Z,19.77
2018-12-26T05:21:45.275Z,19.73
2018-12-26T05:24:14.502Z,20.60
2018-12-26T05:26:43.781Z,20.07
2018-12-26T05:29:13.138Z,21.33
2018-12-26T05:31:42.425Z,19.63
2018-12-26T05:34:11.724Z,20.33
2018-12-26T05:36:40.998Z,20.13
2018-12-26T05:39:10.298Z,20.77
2018-12-26T05:41:39.561Z,20.40
2018-12-26T05:44:08.811Z,19.73
2018-12-26T05:46:38.110Z,19.37
2018-12-26T05:49:07.367Z,20.03
2018-12-26T05:51:36.772Z,19.33
2018-12-26T05:54:06.133Z,18.60
2018-12-26T05:56:35.330Z,19.53
2018-12-26T05:59:04.590Z,19.60
2018-12-26T06:01:33.910Z,18.83
2018-12-26T06:04:03.148Z,18.50
2018-12-26T06:06:32.407Z,18.43
2018-12-26T06:09:01.655Z,20.30
2018-12-26T06:11:30.981Z,18.90
2018-12-26T06:14:00.275Z,19.20
2018-12-26T06:16:29.535Z,19.23
2018-12-26T06:18:58.741Z,20.03
2018-12-26T06:21:27.929Z,18.43
2018-12-26T06:23:57.310Z,19.13
2018-12-26T06:26:26.577Z,19.60
2018-12-26T06:28:55.839Z,20.17
2018-12-26T06:31:25.094Z,19.80
2018-12-26T06:33:54.378Z,21.33
2018-12-26T06:36:23.663Z,21.37
2018-12-26T06:38:52.934Z,21.40
2018-12-26T06:41:22.216Z,21.90
2018-12-26T06:43:51.798Z,22.30
2018-12-26T06:46:21.083Z,22.67
2018-12-26T06:48:50.362Z,21.63
2018-12-26T06:51:19.642Z,24.80
2018-12-26T06:53:49.013Z,24.13
2018-12-26T06:56:18.379Z,23.90
2018-12-26T06:58:47.675Z,23.93
2018-12-26T07:01:16.995Z,22.77
2018-12-26T07:03:46.365Z,23.63
2018-12-26T07:06:15.649Z,24.17
2018-12-26T07:08:45.073Z,23.03
2018-12-26T07:11:14.433Z,23.30
2018-12-26T07:13:43.674Z,22.80
2018-12-26T07:16:14.457Z,23.20
2018-12-26T07:18:43.786Z,22.37
2018-12-26T07:21:13.093Z,22.33
2018-12-26T07:23:42.385Z,21.23
2018-12-26T07:26:11.717Z,22.43
2018-12-26T07:28:41.005Z,22.37
2018-12-26T07:31:10.329Z,22.93
2018-12-26T07:33:39.641Z,23.40
2018-12-26T07:36:08.913Z,23.00
2018-12-26T07:38:38.154Z,22.63
2018-12-26T07:41:07.377Z,20.17
2018-12-26T07:43:36.758Z,22.47
2018-12-26T07:46:06.130Z,24.13
2018-12-26T07:48:35.494Z,23.70
2018-12-26T07:51:04.726Z,21.70
2018-12-26T07:53:33.995Z,21.93
2018-12-26T07:56:03.298Z,22.67
2018-12-26T07:58:32.680Z,22.27
2018-12-26T08:01:03.079Z,23.03
2018-12-26T08:03:32.674Z,24.40
2018-12-26T08:06:01.959Z,21.33
2018-12-26T08:08:31.226Z,24.63
2018-12-26T08:11:00.595Z,23.83
2018-12-26T08:13:29.866Z,22.80
2018-12-26T08:15:59.117Z,24.40
2018-12-26T08:18:28.473Z,24.17
2018-12-26T08:20:57.777Z,24.10
2018-12-26T08:23:27.053Z,25.77
2018-12-26T08:25:56.413Z,26.80
2018-12-26T08:28:26.725Z,27.40
2018-12-26T08:30:56.374Z,27.27
2018-12-26T08:33:25.999Z,26.03
2018-12-26T08:35:55.437Z,27.77
2018-12-26T08:38:24.744Z,27.17
2018-12-26T08:40:54.121Z,29.47
2018-12-26T08:43:23.563Z,29.37
2018-12-26T08:48:20.022Z,31.37
2018-12-26T08:50:51.924Z,30.83
2018-12-26T08:53:21.594Z,27.23
2018-12-26T08:55:51.595Z,29.27
2018-12-26T08:58:21.044Z,29.03
2018-12-26T09:00:50.926Z,28.57
2018-12-26T09:03:20.532Z,27.80
2018-12-26T09:05:51.318Z,29.67
2018-12-26T09:08:39.595Z,29.63
2018-12-26T09:11:28.289Z,27.80
2018-12-26T09:13:57.551Z,28.97
2018-12-26T09:16:26.818Z,30.20
2018-12-26T09:18:56.208Z,25.90
2018-12-26T09:21:25.581Z,31.43
2018-12-26T09:23:54.906Z,28.30
2018-12-26T09:26:24.268Z,27.70
2018-12-26T09:28:53.556Z,26.57
2018-12-26T09:31:22.859Z,29.00
2018-12-26T09:33:52.267Z,26.67
2018-12-26T09:36:21.591Z,29.83
2018-12-26T09:38:50.903Z,30.17
2018-12-26T09:41:20.234Z,30.60
2018-12-26T09:43:49.917Z,28.73
2018-12-26T09:46:19.143Z,28.07
2018-12-26T09:48:48.460Z,29.00
2018-12-26T09:51:17.742Z,26.73
2018-12-26T09:53:47.057Z,27.10
2018-12-26T09:56:16.246Z,28.03
2018-12-26T09:58:52.455Z,31.03
2018-12-26T10:01:16.545Z,26.87
2018-12-26T10:03:46.178Z,27.43
2018-12-26T10:06:15.794Z,25.57
2018-12-26T10:08:45.163Z,28.07
2018-12-26T10:11:14.590Z,27.83
2018-12-26T10:13:43.981Z,30.07
2018-12-26T10:16:13.322Z,30.87
2018-12-26T10:18:42.723Z,30.83
2018-12-26T10:21:12.110Z,27.70
2018-12-26T10:23:41.486Z,29.47
2018-12-26T10:26:10.782Z,28.17
2018-12-26T10:28:40.050Z,29.40
2018-12-26T10:31:09.459Z,26.13
2018-12-26T10:33:38.855Z,27.43
2018-12-26T10:36:08.251Z,28.30
2018-12-26T10:38:37.464Z,28.90
2018-12-26T10:41:06.773Z,30.10
2018-12-26T10:43:36.063Z,30.37
2018-12-26T10:46:05.414Z,28.80
2018-12-26T10:48:34.699Z,29.03
2018-12-26T10:51:05.137Z,28.37
2018-12-26T10:53:34.432Z,25.83
2018-12-26T10:56:03.731Z,26.90
2018-12-26T10:58:33.046Z,26.63
2018-12-26T11:01:02.324Z,28.27
2018-12-26T11:03:31.645Z,27.90
2018-12-26T11:06:01.006Z,28.00
2018-12-26T11:08:30.257Z,28.67
2018-12-26T11:10:59.586Z,28.47
2018-12-26T11:13:28.941Z,29.83
2018-12-26T11:15:58.338Z,28.80
2018-12-26T11:18:27.786Z,29.53
2018-12-26T11:20:57.608Z,29.50
2018-12-26T11:23:26.986Z,27.97
2018-12-26T11:25:56.472Z,30.13
2018-12-26T11:28:25.830Z,29.57
2018-12-26T11:30:55.150Z,28.17
2018-12-26T11:33:24.541Z,29.80
2018-12-26T11:35:53.914Z,26.97
2018-12-26T11:38:23.285Z,30.77
2018-12-26T11:40:52.656Z,30.07
2018-12-26T11:43:21.911Z,28.67
2018-12-26T11:45:51.269Z,30.33
2018-12-26T11:48:20.504Z,29.67
2018-12-26T11:50:49.866Z,29.57
2018-12-26T11:53:19.223Z,32.27
2018-12-26T11:55:48.414Z,31.17
2018-12-26T11:58:17.918Z,29.73
2018-12-26T12:00:47.147Z,30.97
2018-12-26T12:03:16.573Z,30.67
2018-12-26T12:05:46.058Z,30.30
2018-12-26T12:08:17.428Z,28.97
2018-12-26T12:10:46.687Z,29.33
2018-12-26T12:13:16.006Z,31.23
2018-12-26T12:15:45.291Z,30.93
2018-12-26T12:18:15.792Z,30.10
2018-12-26T12:20:46.535Z,31.13
2018-12-26T12:23:15.834Z,31.23
2018-12-26T12:25:45.191Z,30.90
2018-12-26T12:28:14.516Z,29.73
2018-12-26T12:30:43.806Z,31.33
2018-12-26T12:33:13.722Z,29.82
2018-12-26T12:35:45.462Z,31.80
2018-12-26T12:38:14.740Z,32.60
2018-12-26T12:40:44.424Z,33.47
2018-12-26T12:43:13.688Z,30.23
2018-12-26T12:45:43.071Z,34.43
2018-12-26T12:48:12.610Z,31.90
2018-12-26T12:50:41.974Z,33.57
2018-12-26T12:53:11.297Z,31.73
2018-12-26T12:55:41.997Z,31.73
2018-12-26T12:58:11.380Z,31.07
2018-12-26T13:00:40.725Z,32.57
2018-12-26T13:03:10.115Z,36.03
2018-12-26T13:05:39.377Z,32.07
2018-12-26T13:08:08.720Z,33.27
2018-12-26T13:10:39.019Z,35.00
2018-12-26T13:13:08.215Z,33.97
2018-12-26T13:15:37.495Z,34.07
2018-12-26T13:18:06.753Z,31.87
2018-12-26T13:20:36.025Z,32.77
2018-12-26T13:23:05.282Z,35.30
2018-12-26T13:25:34.546Z,34.47
2018-12-26T13:28:03.834Z,36.83
2018-12-26T13:30:33.090Z,36.47
2018-12-26T13:33:02.390Z,34.07
2018-12-26T13:35:31.668Z,36.13
2018-12-26T13:38:01.152Z,34.13
2018-12-26T13:40:30.455Z,34.50
2018-12-26T13:42:59.725Z,32.77
2018-12-26T13:45:29.050Z,33.63
2018-12-26T13:47:58.366Z,32.17
2018-12-26T13:50:27.741Z,35.70
2018-12-26T13:52:57.013Z,33.73
2018-12-26T13:55:26.437Z,35.17
2018-12-26T13:57:55.746Z,35.53
2018-12-26T14:00:25.040Z,34.43
2018-12-26T14:02:54.378Z,37.50
2018-12-26T14:05:23.699Z,34.10
2018-12-26T14:07:53.077Z,35.50
2018-12-26T14:10:22.450Z,35.77
2018-12-26T14:12:51.706Z,35.43
2018-12-26T14:15:21.072Z,35.63
2018-12-26T14:17:50.405Z,36.33
2018-12-26T14:20:19.675Z,37.40
2018-12-26T14:22:48.995Z,37.13
2018-12-26T14:25:18.363Z,37.03
2018-12-26T14:27:47.626Z,40.00
2018-12-26T14:30:16.954Z,36.23
2018-12-26T14:32:46.429Z,34.93
2018-12-26T14:35:15.846Z,34.90
2018-12-26T14:37:45.171Z,36.47
2018-12-26T14:40:14.612Z,39.40
2018-12-26T14:42:44.007Z,37.33
2018-12-26T14:45:13.296Z,36.27
2018-12-26T14:47:42.530Z,36.77
2018-12-26T14:50:11.912Z,40.07
2018-12-26T14:52:41.206Z,39.57
2018-12-26T14:55:10.565Z,37.77
2018-12-26T14:57:39.813Z,39.80
2018-12-26T15:00:09.259Z,43.13
2018-12-26T15:02:38.605Z,39.60
2018-12-26T15:05:07.926Z,50.53
2018-12-26T15:07:37.273Z,41.17
2018-12-26T15:10:07.008Z,38.57
2018-12-26T15:12:36.343Z,37.93
2018-12-26T15:15:06.267Z,39.37
2018-12-26T15:17:35.583Z,39.13
2018-12-26T15:20:05.367Z,37.23
2018-12-26T15:22:34.669Z,38.93
2018-12-26T15:25:04.100Z,35.67
2018-12-26T15:27:33.383Z,40.27
2018-12-26T15:30:02.753Z,42.10
2018-12-26T15:32:32.006Z,40.63
2018-12-26T15:35:03.383Z,41.60
2018-12-26T15:37:32.498Z,41.13
2018-12-26T15:40:01.799Z,40.47
2018-12-26T15:42:31.114Z,43.37
2018-12-26T15:45:00.453Z,41.90
2018-12-26T15:47:29.902Z,40.90
2018-12-26T15:49:59.146Z,42.57
2018-12-26T15:52:28.436Z,41.60
2018-12-26T15:54:57.701Z,42.70
2018-12-26T15:57:26.982Z,43.23
2018-12-26T15:59:56.172Z,38.53
2018-12-26T16:02:25.571Z,41.20
2018-12-26T16:04:54.847Z,38.47
2018-12-26T16:07:24.125Z,39.53
2018-12-26T16:09:53.405Z,39.60
2018-12-26T16:12:22.866Z,41.33
2018-12-26T16:14:52.181Z,40.93
2018-12-26T16:17:21.515Z,38.53
2018-12-26T16:19:52.251Z,40.90
2018-12-26T16:22:21.516Z,41.47
2018-12-26T16:24:51.004Z,42.40
2018-12-26T16:27:20.353Z,41.63
2018-12-26T16:29:49.652Z,40.30
2018-12-26T16:32:21.905Z,41.50
2018-12-26T16:34:51.331Z,42.17
2018-12-26T16:37:20.639Z,42.60
2018-12-26T16:39:49.937Z,45.43
2018-12-26T16:42:19.534Z,42.20
2018-12-26T16:44:48.803Z,44.07
2018-12-26T16:47:18.098Z,45.73
2018-12-26T16:49:47.721Z,40.63
2018-12-26T16:52:17.143Z,39.87
2018-12-26T16:54:46.463Z,41.00
2018-12-26T16:57:15.753Z,41.40
2018-12-26T16:59:45.119Z,43.47
2018-12-26T17:02:14.471Z,43.80
2018-12-26T17:04:43.800Z,43.87
2018-12-26T17:07:13.130Z,44.53
2018-12-26T17:09:42.500Z,41.80
2018-12-26T17:12:11.843Z,43.33
2018-12-26T17:14:41.154Z,44.20
2018-12-26T17:17:10.472Z,41.93
2018-12-26T17:19:39.757Z,39.17
2018-12-26T17:22:09.100Z,40.90
2018-12-26T17:24:38.380Z,43.00
2018-12-26T17:27:07.675Z,42.17
2018-12-26T17:29:37.106Z,40.93
2018-12-26T17:32:06.919Z,41.80
2018-12-26T17:34:36.319Z,41.00
2018-12-26T17:37:05.566Z,42.53
2018-12-26T17:39:34.972Z,40.90
2018-12-26T17:42:04.274Z,42.77
2018-12-26T17:44:33.698Z,41.80
2018-12-26T17:47:02.989Z,41.33
2018-12-26T17:49:32.327Z,40.43
2018-12-26T17:52:01.791Z,41.27
2018-12-26T17:54:51.347Z,42.97
2018-12-26T17:57:29.043Z,43.20
2018-12-26T18:00:35.749Z,44.53
2018-12-26T18:03:05.110Z,43.97
2018-12-26T18:05:34.489Z,42.83
2018-12-26T18:08:03.822Z,42.73
2018-12-26T18:10:33.152Z,42.77
2018-12-26T18:13:02.419Z,43.03
2018-12-26T18:15:31.826Z,45.13
2018-12-26T18:18:01.155Z,48.37
2018-12-26T18:20:30.444Z,48.50
2018-12-26T18:22:59.723Z,50.73
2018-12-26T18:25:29.012Z,68.43
2018-12-26T18:27:58.425Z,61.83
2018-12-26T18:30:27.770Z,47.17
2018-12-26T18:32:57.094Z,64.13
2018-12-26T18:35:26.496Z,56.60
2018-12-26T18:37:55.943Z,53.23
2018-12-26T18:40:25.311Z,48.77
2018-12-26T18:42:54.594Z,47.20
2018-12-26T18:45:24.083Z,51.77
2018-12-26T18:47:53.419Z,52.57
2018-12-26T18:50:22.881Z,52.07
2018-12-26T18:52:52.233Z,52.60
2018-12-26T18:55:21.506Z,52.87
2018-12-26T18:57:50.861Z,49.17
2018-12-26T19:00:20.218Z,48.93
2018-12-26T19:02:51.615Z,51.56
2018-12-26T19:05:20.896Z,51.73
2018-12-26T19:07:50.286Z,49.10
2018-12-26T19:10:19.633Z,52.50
2018-12-26T19:12:48.927Z,47.10
2018-12-26T19:15:18.192Z,49.17
2018-12-26T19:17:47.466Z,53.90
2018-12-26T19:20:16.757Z,49.60
2018-12-26T19:22:47.074Z,49.13
2018-12-26T19:25:16.660Z,46.17
2018-12-26T19:27:45.916Z,47.97
2018-12-26T19:30:15.221Z,48.20
2018-12-26T19:32:44.855Z,46.30
2018-12-26T19:35:14.975Z,48.57
2018-12-26T19:37:44.251Z,50.80
2018-12-26T19:40:13.586Z,46.97
2018-12-26T19:42:42.930Z,47.60
2018-12-26T19:45:12.235Z,48.43
2018-12-26T19:47:41.535Z,48.63
2018-12-26T19:50:11.063Z,48.87
2018-12-26T19:52:40.446Z,48.60
2018-12-26T19:55:11.150Z,49.37
2018-12-26T19:57:40.529Z,48.50
2018-12-26T20:00:11.014Z,54.13
2018-12-26T20:02:40.329Z,54.13
2018-12-26T20:05:09.721Z,54.60
2018-12-26T20:07:39.084Z,53.10
2018-12-26T20:10:10.107Z,48.57
2018-12-26T20:12:40.104Z,47.40
2018-12-26T20:15:09.519Z,47.90
2018-12-26T20:17:38.764Z,46.80
2018-12-26T20:20:08.726Z,45.37
2018-12-26T20:22:37.926Z,45.73
2018-12-26T20:25:07.678Z,43.97
2018-12-26T20:27:37.009Z,43.10
2018-12-26T20:30:07.575Z,44.67
2018-12-26T20:32:36.852Z,40.03
2018-12-26T20:35:06.473Z,47.57
2018-12-26T20:37:35.772Z,41.97
2018-12-26T20:40:06.146Z,42.93
2018-12-26T20:42:35.429Z,43.87
2018-12-26T20:45:04.964Z,41.80
2018-12-26T20:47:34.255Z,43.83
2018-12-26T20:50:03.548Z,42.80
2018-12-26T20:52:32.850Z,41.13
2018-12-26T20:55:02.176Z,43.07
2018-12-26T20:57:31.440Z,40.87
2018-12-26T21:00:00.745Z,40.40
2018-12-26T21:02:30.262Z,43.00
2018-12-26T21:05:00.472Z,42.07
2018-12-26T21:07:30.460Z,41.53
2018-12-26T21:09:59.772Z,41.60
2018-12-26T21:12:30.552Z,39.33
2018-12-26T21:15:00.088Z,38.90
2018-12-26T21:17:29.579Z,38.90
2018-12-26T21:19:58.890Z,42.47
2018-12-26T21:22:28.221Z,45.67
2018-12-26T21:24:57.515Z,40.10
2018-12-26T21:27:27.006Z,45.77
2018-12-26T21:29:56.338Z,40.13
2018-12-26T21:32:25.693Z,39.70
2018-12-26T21:34:55.053Z,37.80
2018-12-26T21:37:24.328Z,35.90
2018-12-26T21:39:53.627Z,39.97
2018-12-26T21:42:22.922Z,37.13
2018-12-26T21:44:53.382Z,41.60
2018-12-26T21:47:22.727Z,39.40
2018-12-26T21:49:52.053Z,44.40
2018-12-26T21:52:21.323Z,42.60
2018-12-26T21:54:50.627Z,41.77
2018-12-26T21:57:19.882Z,36.17
2018-12-26T21:59:49.294Z,37.77
2018-12-26T22:02:22.572Z,38.47
2018-12-26T22:04:49.690Z,37.40
2018-12-26T22:07:18.962Z,39.30
2018-12-26T22:09:48.340Z,39.93
2018-12-26T22:12:17.769Z,37.50
2018-12-26T22:14:47.034Z,42.77
2018-12-26T22:17:16.320Z,38.27
2018-12-26T22:19:45.717Z,34.70
2018-12-26T22:22:15.035Z,36.47
2018-12-26T22:24:44.359Z,37.97
2018-12-26T22:27:13.644Z,36.40
2018-12-26T22:29:43.013Z,38.50
2018-12-26T22:32:12.750Z,37.80
2018-12-26T22:34:42.006Z,38.03
2018-12-26T22:37:11.486Z,37.30
2018-12-26T22:39:40.860Z,35.30
2018-12-26T22:42:10.197Z,33.73
2018-12-26T22:44:39.588Z,35.07
2018-12-26T22:47:09.044Z,34.43
2018-12-26T22:49:38.281Z,33.60
2018-12-26T22:52:07.502Z,33.50
2018-12-26T22:54:38.605Z,34.73
2018-12-26T22:57:07.907Z,32.97
2018-12-26T22:59:37.277Z,31.87
2018-12-26T23:02:06.661Z,33.17
2018-12-26T23:04:36.067Z,31.87
2018-12-26T23:07:05.409Z,30.87
2018-12-26T23:09:34.671Z,31.33
2018-12-26T23:12:03.966Z,32.27
2018-12-26T23:14:33.352Z,31.53
2018-12-26T23:17:02.615Z,31.63
2018-12-26T23:19:31.985Z,29.60
2018-12-26T23:22:01.409Z,30.60
2018-12-26T23:24:30.765Z,30.33
2018-12-26T23:27:00.031Z,30.53
2018-12-26T23:29:30.942Z,29.63
2018-12-26T23:32:00.507Z,30.77
2018-12-26T23:34:29.810Z,28.67
2018-12-26T23:36:59.074Z,28.63
2018-12-26T23:39:28.405Z,28.90
2018-12-26T23:41:57.673Z,26.13
2018-12-26T23:44:26.986Z,26.50
2018-12-26T23:46:56.276Z,27.43
2018-12-26T23:49:25.505Z,29.77
2018-12-26T23:51:54.866Z,27.80
2018-12-26T23:54:24.143Z,27.37
2018-12-26T23:56:53.414Z,25.03
2018-12-26T23:59:22.759Z,25.07
